createdAt,value
2022-10-22T00:00:03.260Z,98883.59
2022-10-22T00:02:31.921Z,98881.19
2022-10-22T00:04:58.896Z,98873.09
2022-10-22T00:07:25.953Z,98869.00
2022-10-22T00:09:52.856Z,98870.09
2022-10-22T00:12:20.206Z,98863.41
2022-10-22T00:14:47.258Z,98864.72
2022-10-22T00:17:14.538Z,98859.69
2022-10-22T00:19:41.801Z,98856.94
2022-10-22T00:22:10.197Z,98851.00
2022-10-22T00:24:39.047Z,98851.75
2022-10-22T00:27:07.985Z,98848.28
2022-10-22T00:29:34.893Z,98839.00
2022-10-22T00:32:02.034Z,98828.84
2022-10-22T00:34:28.890Z,98835.28
2022-10-22T00:36:56.248Z,98832.47
2022-10-22T00:39:26.034Z,98833.94
2022-10-22T00:41:55.454Z,98828.09
2022-10-22T00:44:59.755Z,98830.34
2022-10-22T00:47:31.375Z,98818.44
2022-10-22T00:50:00.105Z,98814.16
2022-10-22T00:52:27.513Z,98811.63
2022-10-22T00:54:54.758Z,98814.00
2022-10-22T00:57:22.853Z,98806.38
2022-10-22T00:59:50.122Z,98812.56
2022-10-22T01:02:17.322Z,98808.41
2022-10-22T01:04:44.863Z,98806.38
2022-10-22T01:07:20.632Z,98809.47
2022-10-22T01:10:03.339Z,98811.53
2022-10-22T01:12:45.103Z,98801.13
2022-10-22T01:15:14.597Z,98798.41
2022-10-22T01:17:52.755Z,98787.66
2022-10-22T01:20:58.458Z,98785.00
2022-10-22T01:23:43.899Z,98791.00
2022-10-22T01:26:21.740Z,98792.53
2022-10-22T01:29:10.211Z,98796.13
2022-10-22T01:31:44.594Z,98791.72
2022-10-22T01:34:16.019Z,98778.25
2022-10-22T01:36:44.895Z,98770.97
2022-10-22T01:39:15.085Z,98773.19
2022-10-22T01:41:45.483Z,98770.72
2022-10-22T01:44:29.725Z,98775.50
2022-10-22T01:47:17.385Z,98775.13
2022-10-22T01:50:05.808Z,98771.06
2022-10-22T01:52:38.417Z,98761.06
2022-10-22T01:55:28.425Z,98763.56
2022-10-22T01:58:38.379Z,98769.06
2022-10-22T02:01:17.932Z,98775.34
2022-10-22T02:03:58.547Z,98782.75
2022-10-22T02:06:27.488Z,98778.69
2022-10-22T02:08:55.735Z,98780.50
2022-10-22T02:11:22.749Z,98785.38
2022-10-22T02:13:53.612Z,98786.06
2022-10-22T02:16:32.453Z,98780.00
2022-10-22T02:19:03.988Z,98769.41
2022-10-22T02:21:31.834Z,98771.31
2022-10-22T02:23:59.074Z,98774.28
2022-10-22T02:26:33.947Z,98774.03
2022-10-22T02:29:25.831Z,98783.94
2022-10-22T02:31:55.985Z,98768.91
2022-10-22T02:34:27.786Z,98765.25
2022-10-22T02:36:55.641Z,98772.97
2022-10-22T02:39:23.264Z,98761.19
2022-10-22T02:41:50.161Z,98768.94
2022-10-22T02:44:21.448Z,98771.53
2022-10-22T02:46:49.951Z,98767.38
2022-10-22T02:49:16.989Z,98773.56
2022-10-22T02:51:43.818Z,98753.53
2022-10-22T02:54:10.810Z,98751.75
2022-10-22T02:56:37.696Z,98752.34
2022-10-22T02:59:04.639Z,98763.63
2022-10-22T03:01:31.551Z,98761.84
2022-10-22T03:03:58.455Z,98752.94
2022-10-22T03:08:57.938Z,98760.44
2022-10-22T03:11:24.897Z,98766.50
2022-10-22T03:13:51.817Z,98750.88
2022-10-22T03:16:18.678Z,98744.59
2022-10-22T03:18:45.592Z,98748.22
2022-10-22T03:21:21.852Z,98744.63
2022-10-22T03:23:49.215Z,98744.06
2022-10-22T03:26:16.176Z,98743.78
2022-10-22T03:28:43.706Z,98738.56
2022-10-22T03:31:10.636Z,98738.31
2022-10-22T03:33:37.501Z,98737.34
2022-10-22T03:36:04.686Z,98738.31
2022-10-22T03:38:31.765Z,98747.66
2022-10-22T03:40:59.026Z,98745.88
2022-10-22T03:43:26.063Z,98743.13
2022-10-22T03:45:52.962Z,98745.47
2022-10-22T03:48:20.124Z,98748.34
2022-10-22T03:50:46.992Z,98744.78
2022-10-22T03:53:13.919Z,98741.47
2022-10-22T03:55:41.787Z,98734.09
2022-10-22T03:58:08.750Z,98737.41
2022-10-22T04:00:36.562Z,98737.56
2022-10-22T04:03:04.284Z,98737.19
2022-10-22T04:05:33.676Z,98733.06
2022-10-22T04:08:00.648Z,98722.56
2022-10-22T04:10:27.495Z,98738.31
2022-10-22T04:12:54.428Z,98732.50
2022-10-22T04:15:21.324Z,98732.81
2022-10-22T04:17:48.535Z,98736.56
2022-10-22T04:20:15.446Z,98724.97
2022-10-22T04:22:42.467Z,98718.66
2022-10-22T04:25:09.777Z,98711.38
2022-10-22T04:27:36.863Z,98715.19
2022-10-22T04:30:06.635Z,98716.63
2022-10-22T04:32:33.502Z,98717.66
2022-10-22T04:35:00.476Z,98714.94
2022-10-22T04:37:27.296Z,98720.56
2022-10-22T04:39:54.126Z,98714.13
2022-10-22T04:42:20.972Z,98714.69
2022-10-22T04:44:47.829Z,98719.94
2022-10-22T04:47:14.739Z,98716.28
2022-10-22T04:49:41.681Z,98715.44
2022-10-22T04:52:08.585Z,98715.44
2022-10-22T04:54:35.486Z,98719.09
2022-10-22T04:57:02.364Z,98721.03
2022-10-22T04:59:29.299Z,98713.88
2022-10-22T05:01:56.248Z,98716.84
2022-10-22T05:04:23.149Z,98708.53
2022-10-22T05:06:50.045Z,98712.81
2022-10-22T05:09:19.490Z,98708.09
2022-10-22T05:11:49.154Z,98714.91
2022-10-22T05:14:19.064Z,98705.16
2022-10-22T05:16:48.563Z,98701.00
2022-10-22T05:19:24.218Z,98715.91
2022-10-22T05:21:53.209Z,98715.50
2022-10-22T05:24:20.537Z,98719.56
2022-10-22T05:26:53.431Z,98718.88
2022-10-22T05:29:21.045Z,98724.59
2022-10-22T05:31:48.134Z,98723.75
2022-10-22T05:34:15.958Z,98727.22
2022-10-22T05:36:42.981Z,98723.97
2022-10-22T05:39:10.453Z,98725.28
2022-10-22T05:41:37.758Z,98732.31
2022-10-22T05:44:05.478Z,98730.66
2022-10-22T05:46:36.040Z,98718.84
2022-10-22T05:49:05.828Z,98726.72
2022-10-22T05:51:34.747Z,98716.31
2022-10-22T05:54:04.104Z,98721.31
2022-10-22T05:56:35.054Z,98715.63
2022-10-22T06:01:38.066Z,98710.72
2022-10-22T06:04:07.902Z,98705.84
2022-10-22T06:06:44.559Z,98707.91
2022-10-22T06:09:26.488Z,98709.19
2022-10-22T06:11:54.058Z,98711.06
2022-10-22T06:14:21.127Z,98700.47
2022-10-22T06:16:49.177Z,98711.28
2022-10-22T06:19:17.922Z,98718.63
2022-10-22T06:21:45.048Z,98714.31
2022-10-22T06:24:12.411Z,98708.28
2022-10-22T06:26:39.856Z,98723.81
2022-10-22T06:29:07.499Z,98724.50
2022-10-22T06:31:37.086Z,98727.56
2022-10-22T06:34:10.485Z,98724.97
2022-10-22T06:36:37.893Z,98724.66
2022-10-22T06:39:05.588Z,98713.09
2022-10-22T06:41:32.539Z,98712.56
2022-10-22T06:44:00.217Z,98711.63
2022-10-22T06:46:27.276Z,98713.59
2022-10-22T06:48:57.525Z,98708.56
2022-10-22T06:51:25.600Z,98705.69
2022-10-22T06:53:53.918Z,98703.59
2022-10-22T06:56:23.927Z,98691.41
2022-10-22T06:58:51.981Z,98693.84
2022-10-22T07:01:21.155Z,98694.88
2022-10-22T07:03:50.963Z,98696.22
2022-10-22T07:06:18.551Z,98687.56
2022-10-22T07:08:45.516Z,98694.78
2022-10-22T07:11:18.096Z,98694.06
2022-10-22T07:13:45.522Z,98692.00
2022-10-22T07:16:13.038Z,98696.22
2022-10-22T07:18:41.217Z,98702.44
2022-10-22T07:21:09.828Z,98692.28
2022-10-22T07:23:37.278Z,98686.97
2022-10-22T07:26:07.526Z,98693.34
2022-10-22T07:28:36.724Z,98688.41
2022-10-22T07:31:03.862Z,98696.28
2022-10-22T07:33:30.798Z,98688.50
2022-10-22T07:35:59.933Z,98689.03
2022-10-22T07:38:27.511Z,98686.97
2022-10-22T07:40:55.113Z,98680.09
2022-10-22T07:43:22.312Z,98681.97
2022-10-22T07:45:49.251Z,98669.72
2022-10-22T07:48:16.506Z,98675.78
2022-10-22T07:53:11.392Z,98683.94
2022-10-22T07:55:38.290Z,98678.75
2022-10-22T07:58:05.290Z,98678.69
2022-10-22T08:00:32.262Z,98678.03
2022-10-22T08:02:59.186Z,98672.94
2022-10-22T08:05:26.198Z,98670.75
2022-10-22T08:07:53.116Z,98661.59
2022-10-22T08:10:20.127Z,98658.22
2022-10-22T08:12:47.153Z,98669.34
2022-10-22T08:15:14.071Z,98668.97
2022-10-22T08:17:41.200Z,98666.25
2022-10-22T08:20:08.670Z,98660.69
2022-10-22T08:22:35.695Z,98652.06
2022-10-22T08:25:02.704Z,98651.06
2022-10-22T08:27:29.630Z,98650.75
2022-10-22T08:29:56.560Z,98654.41
2022-10-22T08:32:23.526Z,98647.50
2022-10-22T08:34:50.507Z,98647.59
2022-10-22T08:37:17.933Z,98639.53
2022-10-22T08:39:45.317Z,98636.91
2022-10-22T08:42:33.811Z,98633.44
2022-10-22T08:45:14.775Z,98641.06
2022-10-22T08:48:08.746Z,98634.38
2022-10-22T08:50:48.932Z,98631.56
2022-10-22T08:53:20.015Z,98638.53
2022-10-22T08:55:47.641Z,98620.44
2022-10-22T08:58:40.412Z,98638.16
2022-10-22T09:01:15.198Z,98631.50
2022-10-22T09:03:46.806Z,98624.88
2022-10-22T09:06:25.724Z,98612.09
2022-10-22T09:08:53.928Z,98623.88
2022-10-22T09:11:39.297Z,98616.72
2022-10-22T09:14:09.490Z,98619.16
2022-10-22T09:16:36.349Z,98616.47
2022-10-22T09:19:12.350Z,98622.47
2022-10-22T09:21:46.417Z,98623.41
2022-10-22T09:24:37.082Z,98611.91
2022-10-22T09:27:16.695Z,98605.78
2022-10-22T09:29:44.815Z,98608.94
2022-10-22T09:32:11.949Z,98606.88
2022-10-22T09:34:39.142Z,98604.09
2022-10-22T09:37:10.040Z,98605.28
2022-10-22T09:39:41.177Z,98609.59
2022-10-22T09:42:08.646Z,98610.56
2022-10-22T10:16:27.600Z,98586.50
2022-10-22T10:19:10.570Z,98587.97
2022-10-22T10:21:56.307Z,98585.06
2022-10-22T10:24:23.133Z,98578.75
2022-10-22T10:26:58.608Z,98565.66
2022-10-22T10:29:25.525Z,98557.31
2022-10-22T10:32:07.629Z,98557.13
2022-10-22T10:34:53.773Z,98550.88
2022-10-22T10:37:29.967Z,98547.22
2022-10-22T10:40:28.900Z,98533.41
2022-10-22T10:43:05.299Z,98527.63
2022-10-22T10:45:42.601Z,98514.06
2022-10-22T10:48:12.554Z,98510.34
2022-10-22T10:50:55.176Z,98504.34
2022-10-22T10:53:27.989Z,98507.72
2022-10-22T10:56:22.024Z,98497.28
2022-10-22T10:58:54.820Z,98492.38
2022-10-22T11:01:27.825Z,98489.84
2022-10-22T11:04:31.919Z,98482.66
2022-10-22T11:07:11.009Z,98479.59
2022-10-22T11:10:14.471Z,98469.06
2022-10-22T11:12:48.962Z,98472.25
2022-10-22T11:15:18.803Z,98474.50
2022-10-22T11:17:48.882Z,98470.59
2022-10-22T11:20:41.366Z,98463.47
2022-10-22T11:23:20.322Z,98448.16
2022-10-22T11:25:49.727Z,98450.38
2022-10-22T11:28:19.555Z,98457.34
2022-10-22T11:30:53.634Z,98453.25
2022-10-22T11:33:25.766Z,98449.16
2022-10-22T11:35:53.562Z,98437.22
2022-10-22T11:38:26.418Z,98437.84
2022-10-22T11:41:13.519Z,98428.19
2022-10-22T11:43:55.147Z,98422.38
2022-10-22T11:46:22.120Z,98423.63
2022-10-22T11:49:13.369Z,98420.41
2022-10-22T11:51:42.706Z,98410.59
2022-10-22T11:54:29.834Z,98405.63
2022-10-22T11:57:22.488Z,98408.06
2022-10-22T11:59:56.554Z,98411.56
2022-10-22T12:02:29.442Z,98413.59
2022-10-22T12:05:20.362Z,98414.81
2022-10-22T12:08:00.273Z,98415.75
2022-10-22T12:10:37.050Z,98412.31
2022-10-22T12:13:24.838Z,98421.13
2022-10-22T12:15:57.529Z,98415.59
2022-10-22T12:18:31.718Z,98417.34
2022-10-22T12:20:58.679Z,98413.50
2022-10-22T12:23:30.896Z,98406.59
2022-10-22T12:25:58.607Z,98404.38
2022-10-22T12:28:25.524Z,98394.31
2022-10-22T12:30:52.421Z,98402.38
2022-10-22T12:33:24.093Z,98392.53
2022-10-22T12:35:54.145Z,98387.22
2022-10-22T12:38:24.391Z,98381.47
2022-10-22T12:40:54.689Z,98390.38
2022-10-22T12:43:29.922Z,98387.91
2022-10-22T12:45:59.146Z,98400.56
2022-10-22T12:48:34.089Z,98392.63
2022-10-22T12:51:04.181Z,98393.84
2022-10-22T12:53:35.419Z,98394.94
2022-10-22T12:56:05.575Z,98386.59
2022-10-22T12:58:42.576Z,98385.41
2022-10-22T13:01:14.370Z,98387.31
2022-10-22T13:03:47.307Z,98384.94
2022-10-22T13:06:23.917Z,98384.59
2022-10-22T13:09:00.087Z,98373.47
2022-10-22T13:12:01.720Z,98367.06
2022-10-22T13:14:32.194Z,98366.88
2022-10-22T13:17:12.965Z,98371.84
2022-10-22T13:19:44.318Z,98366.25
2022-10-22T13:22:26.189Z,98370.47
2022-10-22T13:24:54.233Z,98366.88
2022-10-22T13:27:21.209Z,98369.28
2022-10-22T13:29:48.422Z,98373.66
2022-10-22T13:32:31.752Z,98362.03
2022-10-22T13:35:01.049Z,98361.66
2022-10-22T13:37:30.220Z,98369.56
2022-10-22T13:39:57.277Z,98376.25
2022-10-22T13:42:25.015Z,98371.88
2022-10-22T13:44:51.862Z,98374.16
2022-10-22T13:47:29.601Z,98370.94
2022-10-22T13:50:00.237Z,98368.97
2022-10-22T13:52:40.758Z,98349.00
2022-10-22T13:55:25.757Z,98357.72
2022-10-22T13:57:55.517Z,98349.66
2022-10-22T14:00:26.448Z,98344.31
2022-10-22T14:02:57.228Z,98337.78
2022-10-22T14:05:24.130Z,98339.88
2022-10-22T14:07:52.168Z,98337.00
2022-10-22T14:10:22.912Z,98336.44
2022-10-22T14:12:53.390Z,98330.88
2022-10-22T14:15:27.909Z,98338.66
2022-10-22T14:18:00.585Z,98335.81
2022-10-22T14:20:33.065Z,98339.56
2022-10-22T14:23:20.097Z,98335.81
2022-10-22T14:25:47.429Z,98336.72
2022-10-22T14:28:14.708Z,98337.97
2022-10-22T14:30:41.756Z,98336.13
2022-10-22T14:33:22.122Z,98336.81
2022-10-22T14:35:51.570Z,98336.59
2022-10-22T14:38:18.629Z,98335.91
2022-10-22T14:40:45.948Z,98333.91
2022-10-22T14:43:31.319Z,98334.47
2022-10-22T14:45:58.940Z,98335.78
2022-10-22T14:48:25.766Z,98337.13
2022-10-22T14:50:52.727Z,98327.41
2022-10-22T14:53:19.638Z,98328.22
2022-10-22T14:55:49.242Z,98322.28
2022-10-22T14:58:16.466Z,98322.78
2022-10-22T15:00:44.313Z,98311.56
2022-10-22T15:03:11.910Z,98314.09
2022-10-22T15:05:44.603Z,98307.09
2022-10-22T15:08:13.696Z,98311.38
2022-10-22T15:10:41.615Z,98311.88
2022-10-22T15:13:09.201Z,98318.38
2022-10-22T15:15:39.530Z,98317.56
2022-10-22T15:18:07.524Z,98321.66
2022-10-22T15:20:34.423Z,98315.97
2022-10-22T15:23:01.418Z,98317.81
2022-10-22T15:25:28.884Z,98317.47
2022-10-22T15:28:00.674Z,98322.28
2022-10-22T15:30:28.901Z,98319.13
2022-10-22T15:32:55.772Z,98314.22
2022-10-22T15:35:22.684Z,98309.91
2022-10-22T15:37:51.926Z,98317.50
2022-10-22T15:40:18.866Z,98313.28
2022-10-22T15:42:46.742Z,98318.25
2022-10-22T15:45:13.842Z,98320.41
2022-10-22T15:47:41.020Z,98322.41
2022-10-22T15:50:08.629Z,98325.59
2022-10-22T15:52:35.683Z,98326.59
2022-10-22T15:55:07.159Z,98312.06
2022-10-22T15:57:34.070Z,98318.38
2022-10-22T16:00:00.945Z,98316.19
2022-10-22T16:02:27.826Z,98321.72
2022-10-22T16:04:54.735Z,98326.31
2022-10-22T16:07:23.988Z,98321.53
2022-10-22T16:09:55.031Z,98333.16
2022-10-22T16:12:21.953Z,98323.22
2022-10-22T16:14:52.657Z,98329.88
2022-10-22T16:17:19.501Z,98333.19
2022-10-22T16:19:48.277Z,98329.03
2022-10-22T16:22:15.851Z,98333.84
2022-10-22T16:24:43.106Z,98327.91
2022-10-22T16:27:10.733Z,98324.44
2022-10-22T16:29:39.001Z,98332.34
2022-10-22T16:32:06.553Z,98328.56
2022-10-22T16:34:33.442Z,98333.84
2022-10-22T16:37:00.485Z,98338.50
2022-10-22T16:39:27.430Z,98337.16
2022-10-22T16:41:54.429Z,98336.50
2022-10-22T16:44:21.327Z,98334.50
2022-10-22T16:46:48.349Z,98332.31
2022-10-22T16:49:15.206Z,98336.31
2022-10-22T16:51:42.108Z,98337.59
2022-10-22T16:54:12.623Z,98329.84
2022-10-22T16:56:39.696Z,98331.47
2022-10-22T16:59:07.067Z,98348.66
2022-10-22T17:01:36.883Z,98339.97
2022-10-22T17:04:07.584Z,98333.63
2022-10-22T17:06:34.489Z,98330.16
2022-10-22T17:09:01.493Z,98323.38
2022-10-22T17:11:34.732Z,98323.56
2022-10-22T17:14:02.706Z,98323.59
2022-10-22T17:16:30.194Z,98322.44
2022-10-22T17:18:58.244Z,98321.28
2022-10-22T17:21:25.432Z,98322.44
2022-10-22T17:23:56.946Z,98317.47
2022-10-22T17:26:27.215Z,98319.44
2022-10-22T17:28:55.110Z,98319.78
2022-10-22T17:31:23.758Z,98314.66
2022-10-22T17:33:52.551Z,98312.69
2022-10-22T17:36:20.889Z,98306.06
2022-10-22T17:38:50.374Z,98301.78
2022-10-22T17:41:20.275Z,98310.97
2022-10-22T17:43:47.837Z,98299.91
2022-10-22T17:46:17.676Z,98297.28
2022-10-22T17:48:44.893Z,98292.16
2022-10-22T17:51:13.638Z,98287.34
2022-10-22T17:53:43.142Z,98277.09
2022-10-22T17:56:12.401Z,98269.16
2022-10-22T17:58:39.286Z,98263.72
2022-10-22T18:01:06.647Z,98262.06
2022-10-22T18:03:34.516Z,98277.94
2022-10-22T18:06:07.419Z,98282.91
2022-10-22T18:08:34.696Z,98270.34
2022-10-22T18:11:10.088Z,98272.66
2022-10-22T18:13:37.681Z,98263.72
2022-10-22T18:16:04.894Z,98251.66
2022-10-22T18:18:31.918Z,98237.91
2022-10-22T18:21:00.594Z,98244.38
2022-10-22T18:23:28.238Z,98243.72
2022-10-22T18:25:55.199Z,98247.84
2022-10-22T18:28:22.205Z,98250.00
2022-10-22T18:30:49.661Z,98242.91
2022-10-22T18:33:19.429Z,98250.31
2022-10-22T18:35:46.845Z,98261.91
2022-10-22T18:38:13.860Z,98258.44
2022-10-22T18:40:46.949Z,98262.41
2022-10-22T18:43:15.132Z,98249.03
2022-10-22T18:45:46.840Z,98253.47
2022-10-22T18:48:16.173Z,98249.81
2022-10-22T18:50:43.629Z,98244.38
2022-10-22T18:53:10.724Z,98238.56
2022-10-22T18:55:39.671Z,98238.09
2022-10-22T18:58:07.144Z,98241.72
2022-10-22T19:00:35.809Z,98242.22
2022-10-22T19:03:03.397Z,98250.16
2022-10-22T19:05:30.778Z,98246.69
2022-10-22T19:07:57.833Z,98255.13
2022-10-22T19:10:24.707Z,98257.78
2022-10-22T19:12:51.682Z,98267.00
2022-10-22T19:15:18.625Z,98259.22
2022-10-22T19:17:45.713Z,98264.19
2022-10-22T19:20:13.391Z,98261.03
2022-10-22T19:22:40.280Z,98266.47
2022-10-22T19:25:11.158Z,98261.03
2022-10-22T19:27:40.168Z,98256.44
2022-10-22T19:30:07.756Z,98265.97
2022-10-22T19:32:34.954Z,98255.75
2022-10-22T19:35:02.114Z,98259.34
2022-10-22T19:37:29.033Z,98257.72
2022-10-22T19:39:55.873Z,98248.91
2022-10-22T19:42:22.797Z,98248.09
2022-10-22T19:44:49.729Z,98237.13
2022-10-22T19:47:16.871Z,98231.66
2022-10-22T19:49:43.903Z,98235.53
2022-10-22T19:52:10.844Z,98227.41
2022-10-22T19:54:40.895Z,98223.38
2022-10-22T19:57:08.621Z,98227.84
2022-10-22T19:59:35.752Z,98222.41
2022-10-22T20:02:04.073Z,98212.72
2022-10-22T20:04:31.267Z,98199.47
2022-10-22T20:06:58.723Z,98209.19
2022-10-22T20:09:25.687Z,98208.00
2022-10-22T20:11:52.580Z,98207.34
2022-10-22T20:14:19.447Z,98201.97
2022-10-22T20:16:46.468Z,98191.84
2022-10-22T20:19:16.277Z,98202.13
2022-10-22T20:21:44.669Z,98207.38
2022-10-22T20:24:12.822Z,98194.75
2022-10-22T20:26:39.725Z,98186.34
2022-10-22T20:29:07.798Z,98180.94
2022-10-22T20:31:36.047Z,98184.66
2022-10-22T20:34:03.021Z,98181.59
2022-10-22T20:36:31.852Z,98184.59
2022-10-22T20:39:06.398Z,98189.38
2022-10-22T20:41:35.034Z,98187.50
2022-10-22T20:44:01.994Z,98181.50
2022-10-22T20:46:31.344Z,98181.75
2022-10-22T20:49:07.391Z,98184.91
2022-10-22T20:51:36.208Z,98175.78
2022-10-22T20:54:03.973Z,98174.13
2022-10-22T20:56:31.781Z,98173.41
2022-10-22T20:59:05.533Z,98173.25
2022-10-22T21:01:44.579Z,98173.88
2022-10-22T21:04:11.568Z,98179.63
2022-10-22T21:06:40.361Z,98176.16
2022-10-22T21:09:08.782Z,98171.38
2022-10-22T21:11:36.817Z,98160.13
2022-10-22T21:14:05.682Z,98158.81
2022-10-22T21:16:32.657Z,98164.81
2022-10-22T21:19:00.067Z,98157.69
2022-10-22T21:21:27.049Z,98147.22
2022-10-22T21:23:54.495Z,98158.72
2022-10-22T21:26:21.630Z,98157.06
2022-10-22T21:28:49.129Z,98153.53
2022-10-22T21:31:21.977Z,98147.97
2022-10-22T21:33:50.613Z,98149.19
2022-10-22T21:36:22.481Z,98145.81
2022-10-22T21:38:51.463Z,98147.34
2022-10-22T21:41:19.783Z,98141.16
2022-10-22T21:43:46.756Z,98145.81
2022-10-22T21:46:19.320Z,98149.00
2022-10-22T21:48:46.932Z,98144.16
2022-10-22T21:51:16.995Z,98142.66
2022-10-22T21:53:44.134Z,98139.47
2022-10-22T21:56:18.111Z,98139.63
2022-10-22T21:58:45.216Z,98139.41
2022-10-22T22:01:12.934Z,98124.66
2022-10-22T22:03:46.019Z,98126.09
2022-10-22T22:06:13.193Z,98129.56
2022-10-22T22:08:40.768Z,98123.13
2022-10-22T22:11:13.823Z,98123.75
2022-10-22T22:13:40.972Z,98119.97
2022-10-22T22:16:16.225Z,98118.78
2022-10-22T22:18:43.435Z,98124.09
2022-10-22T22:21:13.378Z,98131.00
2022-10-22T22:23:43.017Z,98124.72
2022-10-22T22:26:10.997Z,98117.91
2022-10-22T22:28:38.593Z,98123.03
2022-10-22T22:31:22.119Z,98116.09
2022-10-22T22:33:49.385Z,98112.09
2022-10-22T22:36:16.380Z,98112.41
2022-10-22T22:38:43.226Z,98108.75
2022-10-22T22:41:10.121Z,98101.16
2022-10-22T22:43:37.887Z,98105.13
2022-10-22T22:46:07.743Z,98095.72
2022-10-22T22:48:35.278Z,98090.75
2022-10-22T22:51:04.068Z,98094.41
2022-10-22T22:53:31.762Z,98093.13
2022-10-22T22:56:13.999Z,98092.88
2022-10-22T22:58:41.928Z,98091.16
2022-10-22T23:01:29.806Z,98087.84
2022-10-22T23:03:59.868Z,98091.84
2022-10-22T23:06:29.372Z,98080.28
2022-10-22T23:08:58.130Z,98085.25
2022-10-22T23:11:26.322Z,98094.47
2022-10-22T23:13:55.580Z,98098.03
2022-10-22T23:16:24.667Z,98099.06
2022-10-22T23:18:54.131Z,98094.13
2022-10-22T23:21:26.974Z,98095.06
2022-10-22T23:23:57.187Z,98096.81
2022-10-22T23:26:45.828Z,98096.97
2022-10-22T23:29:19.548Z,98092.34
2022-10-22T23:31:47.278Z,98092.25
2022-10-22T23:34:17.483Z,98087.81
2022-10-22T23:36:45.169Z,98090.00
2022-10-22T23:39:14.620Z,98075.84
2022-10-22T23:41:41.707Z,98085.22
2022-10-22T23:44:09.882Z,98084.94
2022-10-22T23:46:40.455Z,98075.16
2022-10-22T23:49:09.391Z,98065.53
2022-10-22T23:51:36.505Z,98066.66
2022-10-22T23:54:06.501Z,98074.25
2022-10-22T23:56:36.144Z,98080.66
2022-10-22T23:59:04.135Z,98071.53
